Time;durP1;ratioP1;P1;durP2;ratioP2;P2;SDS_P1;SDS_P2;PMS_P1;PMS_P2;Temp;Humidity;BMP_temperature;BMP_pressure;BME280_temperature;BME280_humidity;BME280_pressure;Samples;Min_cycle;Max_cycle;Signal;HPM_P1;HPM_P2
2021/07/10 00:01:39;;;;;;;12.20;11.00;;;;;;;;;;4951414;28;20230;-87
2021/07/10 00:04:45;;;;;;;15.50;10.47;;;;;;;;;;4973667;28;20660;-86
2021/07/10 00:07:49;;;;;;;19.17;10.00;;;;;;;;;;4951928;28;20194;-87
2021/07/10 00:10:53;;;;;;;17.43;9.43;;;;;;;;;;4962968;28;20539;-87
2021/07/10 00:13:57;;;;;;;13.73;9.30;;;;;;;;;;4974114;28;20194;-87
2021/07/10 00:17:02;;;;;;;11.43;10.23;;;;;;;;;;4973491;28;20634;-87
2021/07/10 00:20:08;;;;;;;13.27;10.33;;;;;;;;;;4964995;28;20217;-87
2021/07/10 00:23:13;;;;;;;12.83;10.17;;;;;;;;;;4965657;28;20233;-87
2021/07/10 00:26:17;;;;;;;12.73;10.70;;;;;;;;;;4954945;28;20533;-87
2021/07/10 00:29:21;;;;;;;11.07;9.73;;;;;;;;;;4976679;28;20194;-86
2021/07/10 00:32:25;;;;;;;11.93;9.83;;;;;;;;;;4958655;28;20226;-86
2021/07/10 00:35:29;;;;;;;9.63;8.43;;;;;;;;;;4954579;28;20186;-87
2021/07/10 00:38:33;;;;;;;10.67;9.13;;;;;;;;;;4954533;28;20186;-87
2021/07/10 00:41:37;;;;;;;10.57;8.47;;;;;;;;;;4954729;28;20226;-87
2021/07/10 00:44:43;;;;;;;15.50;9.00;;;;;;;;;;4957745;28;20206;-86
2021/07/10 00:47:47;;;;;;;11.07;8.97;;;;;;;;;;4970965;28;20531;-87
2021/07/10 00:50:51;;;;;;;11.57;7.80;;;;;;;;;;4954622;28;20183;-87
2021/07/10 00:53:55;;;;;;;9.07;8.13;;;;;;;;;;4976692;28;20183;-87
2021/07/10 00:57:01;;;;;;;12.07;8.33;;;;;;;;;;4954345;28;20175;-87
2021/07/10 01:00:08;;;;;;;9.67;8.00;;;;;;;;;;4963863;28;20194;-86
2021/07/10 01:03:14;;;;;;;9.83;8.73;;;;;;;;;;4973172;28;20221;-87
2021/07/10 01:06:18;;;;;;;11.33;9.53;;;;;;;;;;4959222;28;20539;-87
2021/07/10 01:09:23;;;;;;;11.20;9.13;;;;;;;;;;4976020;28;20183;-87
2021/07/10 01:12:28;;;;;;;11.40;9.10;;;;;;;;;;4954134;28;20226;-87
2021/07/10 01:15:33;;;;;;;11.03;8.90;;;;;;;;;;4971144;28;20542;-86
2021/07/10 01:18:37;;;;;;;11.17;9.07;;;;;;;;;;4953993;28;20703;-87
2021/07/10 01:21:41;;;;;;;9.00;8.00;;;;;;;;;;4985705;28;20230;-86
2021/07/10 01:24:45;;;;;;;10.07;9.13;;;;;;;;;;4972982;28;20186;-87
2021/07/10 01:27:51;;;;;;;11.23;7.53;;;;;;;;;;4965389;28;20551;-87
2021/07/10 01:30:55;;;;;;;11.63;8.23;;;;;;;;;;4969380;28;20206;-86
2021/07/10 01:34:00;;;;;;;13.27;9.53;;;;;;;;;;4964183;28;20195;-86
2021/07/10 01:37:04;;;;;;;11.33;8.90;;;;;;;;;;4953597;28;20635;-86
2021/07/10 01:40:09;;;;;;;11.63;9.10;;;;;;;;;;4964278;28;20198;-87
2021/07/10 01:43:13;;;;;;;10.83;8.97;;;;;;;;;;4953314;28;20690;-87
2021/07/10 01:46:18;;;;;;;13.63;10.07;;;;;;;;;;4964376;28;20683;-86
2021/07/10 01:49:22;;;;;;;11.53;9.67;;;;;;;;;;4953737;28;20196;-87
2021/07/10 01:52:27;;;;;;;9.10;8.03;;;;;;;;;;4964028;28;20206;-86
2021/07/10 01:55:30;;;;;;;9.57;8.57;;;;;;;;;;4966750;28;21922;-86
2021/07/10 01:58:35;;;;;;;9.90;8.90;;;;;;;;;;4994341;28;20669;-86
2021/07/10 02:01:39;;;;;;;11.30;8.57;;;;;;;;;;4971767;28;20226;-86
2021/07/10 02:04:45;;;;;;;11.13;9.00;;;;;;;;;;4983201;28;20190;-86
2021/07/10 02:07:50;;;;;;;12.03;9.33;;;;;;;;;;4983469;28;20664;-87
2021/07/10 02:10:54;;;;;;;10.03;8.80;;;;;;;;;;4972493;28;20178;-86
2021/07/10 02:13:58;;;;;;;10.13;8.93;;;;;;;;;;4968589;28;20194;-86
2021/07/10 02:17:04;;;;;;;13.00;9.90;;;;;;;;;;4953096;28;20187;-87
2021/07/10 02:20:09;;;;;;;11.80;10.53;;;;;;;;;;4963677;28;20183;-86
2021/07/10 02:23:13;;;;;;;10.47;9.30;;;;;;;;;;4952481;28;20225;-87
2021/07/10 02:26:18;;;;;;;13.70;8.67;;;;;;;;;;4952701;28;20183;-87
2021/07/10 02:29:22;;;;;;;13.83;9.80;;;;;;;;;;4952408;28;20665;-86
2021/07/10 02:32:26;;;;;;;14.80;9.93;;;;;;;;;;4978802;28;20234;-86
2021/07/10 02:35:31;;;;;;;14.03;9.83;;;;;;;;;;4957314;28;20190;-87
2021/07/10 02:38:35;;;;;;;11.83;10.50;;;;;;;;;;4952569;28;20183;-87
2021/07/10 02:41:39;;;;;;;12.17;10.80;;;;;;;;;;4977915;28;20236;-87
2021/07/10 02:44:43;;;;;;;12.00;10.20;;;;;;;;;;4983432;28;20545;-85
2021/07/10 02:47:48;;;;;;;10.07;8.70;;;;;;;;;;4971945;28;20189;-86
2021/07/10 02:50:52;;;;;;;9.43;8.43;;;;;;;;;;4971931;28;20186;-86
2021/07/10 02:53:56;;;;;;;9.57;8.27;;;;;;;;;;4982639;28;20182;-86
2021/07/10 02:57:01;;;;;;;10.17;7.77;;;;;;;;;;4971433;28;20637;-85
2021/07/10 03:00:10;;;;;;;12.47;7.30;;;;;;;;;;4971722;28;20182;-85
2021/07/10 03:03:14;;;;;;;8.13;6.50;;;;;;;;;;4982455;28;20210;-84
2021/07/10 03:06:18;;;;;;;7.93;6.83;;;;;;;;;;4982214;28;20214;-85
2021/07/10 03:09:22;;;;;;;7.17;6.57;;;;;;;;;;4971229;28;20198;-85
2021/07/10 03:12:26;;;;;;;9.13;6.17;;;;;;;;;;4971419;28;20243;-83
2021/07/10 03:15:30;;;;;;;11.23;6.73;;;;;;;;;;4971601;28;20542;-83
2021/07/10 03:18:34;;;;;;;18.10;7.97;;;;;;;;;;4967229;28;20194;-83
2021/07/10 03:21:39;;;;;;;19.03;7.83;;;;;;;;;;4953280;28;20226;-82
2021/07/10 03:24:43;;;;;;;20.63;8.50;;;;;;;;;;4993290;28;20186;-83
2021/07/10 03:27:48;;;;;;;14.40;8.63;;;;;;;;;;4993498;28;20186;-83
2021/07/10 03:30:53;;;;;;;8.93;6.57;;;;;;;;;;4972578;28;20203;-83
2021/07/10 03:33:57;;;;;;;6.63;5.87;;;;;;;;;;4952202;28;20183;-83
2021/07/10 03:37:01;;;;;;;8.73;5.57;;;;;;;;;;4970986;28;20186;-82
2021/07/10 03:40:08;;;;;;;6.43;5.07;;;;;;;;;;4981973;28;20186;-83
2021/07/10 03:43:13;;;;;;;9.03;4.67;;;;;;;;;;4982130;28;20555;-83
2021/07/10 03:46:17;;;;;;;5.33;4.57;;;;;;;;;;4974210;28;20187;-83
2021/07/10 03:49:21;;;;;;;4.20;3.60;;;;;;;;;;4963207;28;20187;-83
2021/07/10 03:52:25;;;;;;;3.83;3.50;;;;;;;;;;4963104;28;20214;-83
2021/07/10 03:55:31;;;;;;;4.43;4.00;;;;;;;;;;4955177;28;20539;-83
2021/07/10 03:58:35;;;;;;;4.20;3.73;;;;;;;;;;4967727;28;20191;-83
2021/07/10 04:01:41;;;;;;;3.67;3.20;;;;;;;;;;4967979;28;20218;-83
2021/07/10 04:04:45;;;;;;;4.00;3.47;;;;;;;;;;4977589;28;20195;-82
2021/07/10 04:07:51;;;;;;;30.80;3.53;;;;;;;;;;4995422;28;20195;-82
2021/07/10 04:10:54;;;;;;;3.60;3.30;;;;;;;;;;4965979;28;20183;-83
2021/07/10 04:13:59;;;;;;;3.00;2.70;;;;;;;;;;4955491;28;20186;-83
2021/07/10 04:17:03;;;;;;;3.77;2.97;;;;;;;;;;4977379;28;20191;-83
2021/07/10 04:20:09;;;;;;;4.33;2.97;;;;;;;;;;4966031;28;20179;-82
2021/07/10 04:23:14;;;;;;;3.90;3.17;;;;;;;;;;4954849;28;20218;-83
2021/07/10 04:26:18;;;;;;;3.03;2.80;;;;;;;;;;4965738;28;20183;-83
2021/07/10 04:29:22;;;;;;;2.97;2.60;;;;;;;;;;4988193;28;20207;-83
2021/07/10 04:32:26;;;;;;;2.70;2.50;;;;;;;;;;5010626;23;20229;-86
2021/07/10 04:35:30;;;;;;;3.53;2.43;;;;;;;;;;4993403;28;20177;-86
2021/07/10 04:38:37;;;;;;;2.87;2.67;;;;;;;;;;4985020;28;20190;-86
2021/07/10 04:41:41;;;;;;;2.37;2.17;;;;;;;;;;4996105;28;20234;-86
2021/07/10 04:44:45;;;;;;;2.97;2.47;;;;;;;;;;4996863;28;20645;-86
2021/07/10 04:47:49;;;;;;;2.77;2.57;;;;;;;;;;4984993;28;20182;-86
2021/07/10 04:50:54;;;;;;;3.83;3.47;;;;;;;;;;4984899;28;20182;-85
2021/07/10 04:53:58;;;;;;;4.27;3.83;;;;;;;;;;4992955;28;20209;-86
2021/07/10 04:57:02;;;;;;;6.30;3.93;;;;;;;;;;4973750;28;20206;-86
2021/07/10 05:00:07;;;;;;;4.07;3.67;;;;;;;;;;4984945;28;20178;-86
2021/07/10 05:03:11;;;;;;;4.37;3.33;;;;;;;;;;4984478;28;20748;-86
2021/07/10 05:06:15;;;;;;;3.93;3.07;;;;;;;;;;4972723;28;20519;-86
2021/07/10 05:09:23;;;;;;;3.40;3.10;;;;;;;;;;4984583;28;20190;-91
2021/07/10 05:12:27;;;;;;;3.90;3.57;;;;;;;;;;4973650;28;20222;-87
2021/07/10 05:15:31;;;;;;;4.90;3.83;;;;;;;;;;4986361;28;20208;-86
2021/07/10 05:18:35;;;;;;;4.40;3.90;;;;;;;;;;4978792;28;20214;-87
2021/07/10 05:21:39;;;;;;;4.90;4.40;;;;;;;;;;4983992;28;20178;-86
2021/07/10 05:24:44;;;;;;;5.33;4.83;;;;;;;;;;4973033;28;20182;-86
2021/07/10 05:27:47;;;;;;;7.83;4.20;;;;;;;;;;4991870;28;20197;-86
2021/07/10 05:30:51;;;;;;;11.93;5.77;;;;;;;;;;5003626;28;20652;-86
2021/07/10 05:33:56;;;;;;;6.27;4.87;;;;;;;;;;5014458;28;20206;-87
2021/07/10 05:37:00;;;;;;;6.03;4.87;;;;;;;;;;5003301;28;20197;-87
2021/07/10 05:40:06;;;;;;;8.60;5.70;;;;;;;;;;5003475;28;20186;-86
2021/07/10 05:43:11;;;;;;;18.63;8.00;;;;;;;;;;4990510;28;20230;-87
2021/07/10 05:46:15;;;;;;;8.67;6.83;;;;;;;;;;4983768;28;20182;-87
2021/07/10 05:49:21;;;;;;;11.07;9.23;;;;;;;;;;4992290;28;20201;-87
2021/07/10 05:52:25;;;;;;;12.53;8.63;;;;;;;;;;5002874;28;20209;-86
2021/07/10 05:55:29;;;;;;;10.30;9.20;;;;;;;;;;5003657;28;20509;-87
2021/07/10 05:58:34;;;;;;;11.00;9.07;;;;;;;;;;5003003;28;20190;-87
2021/07/10 06:01:39;;;;;;;12.20;10.50;;;;;;;;;;4991715;28;20189;-87
2021/07/10 06:04:42;;;;;;;12.43;9.30;;;;;;;;;;4988434;28;20647;-87
2021/07/10 06:07:46;;;;;;;9.50;8.50;;;;;;;;;;4991724;28;20206;-88
2021/07/10 06:10:51;;;;;;;10.37;8.60;;;;;;;;;;5013898;28;20193;-88
2021/07/10 06:13:55;;;;;;;11.10;9.00;;;;;;;;;;4987241;28;20201;-88
2021/07/10 06:17:00;;;;;;;8.80;6.73;;;;;;;;;;5008190;28;20241;-88
2021/07/10 06:20:05;;;;;;;9.37;8.23;;;;;;;;;;4993817;28;20190;-88
2021/07/10 06:23:09;;;;;;;10.63;9.50;;;;;;;;;;4982260;28;20221;-88
2021/07/10 06:26:13;;;;;;;12.67;10.63;;;;;;;;;;5002717;28;20624;-87
2021/07/10 06:29:18;;;;;;;12.17;10.33;;;;;;;;;;4981029;28;20201;-87
2021/07/10 06:32:22;;;;;;;14.07;11.83;;;;;;;;;;5004131;28;20240;-87
2021/07/10 06:35:26;;;;;;;13.63;11.70;;;;;;;;;;5006043;28;20284;-87
2021/07/10 06:38:30;;;;;;;15.00;12.10;;;;;;;;;;4987851;28;20537;-87
2021/07/10 06:41:34;;;;;;;15.30;11.33;;;;;;;;;;4975506;28;20193;-87
2021/07/10 06:44:38;;;;;;;13.90;11.90;;;;;;;;;;4994882;28;20193;-87
2021/07/10 08:49:48;;;;;;;5.93;5.10;;;;;;;;;;5135474;27;20368;-73
2021/07/10 08:52:52;;;;;;;6.30;5.70;;;;;;;;;;5098762;28;20186;-75
2021/07/10 08:55:57;;;;;;;9.93;5.50;;;;;;;;;;5111479;28;20190;-73
2021/07/10 08:59:01;;;;;;;5.85;4.75;;;;;;;;;;5124261;28;20189;-73
2021/07/10 09:02:06;;;;;;;7.80;5.87;;;;;;;;;;5131593;28;20633;-75
2021/07/10 09:05:10;;;;;;;6.78;6.05;;;;;;;;;;5118841;28;20679;-73
2021/07/10 09:08:28;;;;;;;7.72;7.03;;;;;;;;;;5094428;28;20727;-74
2021/07/10 09:11:32;;;;;;;8.30;6.63;;;;;;;;;;5131584;28;20217;-73
2021/07/10 09:14:36;;;;;;;36.28;25.35;;;;;;;;;;5131229;28;20645;-74
2021/07/10 09:17:46;;;;;;;7.18;6.03;;;;;;;;;;5127888;28;20212;-74
2021/07/10 09:20:49;;;;;;;7.75;6.75;;;;;;;;;;5110441;28;20728;-74
2021/07/10 09:23:54;;;;;;;9.85;7.25;;;;;;;;;;5097253;28;21199;-74
2021/07/10 09:27:04;;;;;;;6.32;5.60;;;;;;;;;;5111021;28;20178;-75
2021/07/10 09:30:08;;;;;;;6.43;5.82;;;;;;;;;;5119501;28;20552;-76
2021/07/10 09:33:19;;;;;;;22.60;19.10;;;;;;;;;;5118234;28;20549;-73
2021/07/10 09:36:23;;;;;;;6.60;5.85;;;;;;;;;;5130920;28;20627;-74
2021/07/10 09:39:43;;;;;;;6.75;6.03;;;;;;;;;;5117237;28;20185;-73
2021/07/10 09:42:48;;;;;;;37.92;29.90;;;;;;;;;;5113944;28;20197;-73
2021/07/10 09:45:53;;;;;;;28.27;25.38;;;;;;;;;;5130718;28;20181;-74
2021/07/10 09:48:57;;;;;;;7.35;6.10;;;;;;;;;;5130100;28;20222;-74
2021/07/10 09:52:06;;;;;;;8.10;7.13;;;;;;;;;;5119835;28;21290;-75
2021/07/10 09:55:13;;;;;;;13.93;11.93;;;;;;;;;;5110044;28;20651;-74
2021/07/10 09:58:32;;;;;;;5.90;5.20;;;;;;;;;;5112761;28;20194;-75
2021/07/10 10:01:37;;;;;;;7.07;5.20;;;;;;;;;;5116221;28;20218;-73
2021/07/10 10:04:41;;;;;;;8.35;7.32;;;;;;;;;;5095982;28;20190;-75
2021/07/10 10:07:50;;;;;;;91.07;70.63;;;;;;;;;;5076083;28;20178;-75
2021/07/10 10:10:55;;;;;;;17.10;14.88;;;;;;;;;;5076262;28;20216;-75
2021/07/10 10:14:07;;;;;;;6.00;4.95;;;;;;;;;;5091830;28;20186;-75
2021/07/10 10:17:13;;;;;;;4.88;4.22;;;;;;;;;;5116458;28;20190;-75
2021/07/10 10:20:17;;;;;;;4.90;4.43;;;;;;;;;;5104029;28;20174;-75
2021/07/10 10:23:21;;;;;;;4.78;4.30;;;;;;;;;;5111745;28;20192;-75
2021/07/10 10:26:26;;;;;;;4.40;4.00;;;;;;;;;;5113324;28;20201;-75
2021/07/10 10:29:32;;;;;;;4.28;3.88;;;;;;;;;;5102539;28;20688;-75
2021/07/10 10:32:36;;;;;;;5.30;4.00;;;;;;;;;;5095969;28;20221;-75
2021/07/10 10:35:41;;;;;;;4.05;3.65;;;;;;;;;;5104173;22;20244;-74
2021/07/10 10:38:45;;;;;;;5.93;3.65;;;;;;;;;;5058281;28;20658;-74
2021/07/10 10:41:55;;;;;;;4.05;3.65;;;;;;;;;;5057237;28;20215;-74
2021/07/10 10:45:01;;;;;;;4.15;3.58;;;;;;;;;;5055675;28;20193;-74
2021/07/10 10:48:05;;;;;;;10.15;4.10;;;;;;;;;;5065737;28;20201;-75
2021/07/10 10:51:42;;;;;;;3.55;3.25;;;;;;;;;;5052764;28;20215;-74
2021/07/10 10:54:50;;;;;;;4.55;3.40;;;;;;;;;;5059848;28;20203;-76
2021/07/10 10:57:58;;;;;;;3.85;3.03;;;;;;;;;;5075322;28;20638;-76
2021/07/10 11:01:07;;;;;;;4.15;3.25;;;;;;;;;;5042082;28;20701;-76
2021/07/10 11:04:11;;;;;;;3.25;2.95;;;;;;;;;;5017085;28;20192;-76
2021/07/10 11:07:27;;;;;;;6.53;3.05;;;;;;;;;;5062383;28;20200;-76
2021/07/10 11:10:31;;;;;;;3.22;2.90;;;;;;;;;;5071165;28;20188;-76
2021/07/10 11:13:40;;;;;;;3.85;3.55;;;;;;;;;;5052820;28;20195;-76
2021/07/10 11:17:05;;;;;;;3.85;3.20;;;;;;;;;;5071105;28;20583;-76
2021/07/10 11:20:10;;;;;;;3.88;3.20;;;;;;;;;;5067940;28;20184;-76
2021/07/10 11:23:23;;;;;;;3.35;2.53;;;;;;;;;;5056196;28;20199;-76
2021/07/10 11:26:27;;;;;;;3.45;2.90;;;;;;;;;;5067596;28;20202;-76
2021/07/10 11:29:37;;;;;;;4.07;2.63;;;;;;;;;;5041762;28;20945;-76
2021/07/10 11:32:43;;;;;;;4.13;2.92;;;;;;;;;;5050074;28;20192;-76
2021/07/10 11:35:48;;;;;;;3.30;2.90;;;;;;;;;;5037167;28;20200;-76
2021/07/10 11:38:52;;;;;;;2.70;2.50;;;;;;;;;;5047405;28;20199;-76
2021/07/10 11:42:21;;;;;;;2.97;2.58;;;;;;;;;;5039651;28;20691;-76
2021/07/10 11:45:27;;;;;;;4.18;2.72;;;;;;;;;;5060394;28;20183;-76
2021/07/10 11:48:32;;;;;;;3.15;2.80;;;;;;;;;;5047794;28;20208;-76
2021/07/10 11:51:36;;;;;;;3.85;2.50;;;;;;;;;;5059676;28;20730;-76
2021/07/10 11:54:50;;;;;;;2.80;2.40;;;;;;;;;;5042969;28;20196;-76
2021/07/10 11:57:54;;;;;;;2.65;2.40;;;;;;;;;;5041907;28;20635;-76
2021/07/10 12:01:00;;;;;;;2.58;2.38;;;;;;;;;;5030470;28;20220;-76
2021/07/10 12:04:11;;;;;;;2.97;2.15;;;;;;;;;;5041867;28;20200;-76
2021/07/10 12:07:19;;;;;;;2.30;2.00;;;;;;;;;;5041612;28;20180;-76
2021/07/10 12:10:35;;;;;;;2.80;2.30;;;;;;;;;;5030121;28;20208;-76
2021/07/10 12:13:39;;;;;;;2.40;2.17;;;;;;;;;;5041439;28;20193;-76
2021/07/10 12:16:43;;;;;;;4.32;2.20;;;;;;;;;;5053639;28;20200;-76
2021/07/10 12:19:49;;;;;;;2.38;2.17;;;;;;;;;;5053535;28;20200;-76
2021/07/10 12:22:59;;;;;;;2.28;2.03;;;;;;;;;;5029823;28;20180;-76
2021/07/10 12:26:07;;;;;;;2.58;2.38;;;;;;;;;;5053770;28;20184;-76
2021/07/10 12:29:13;;;;;;;2.75;1.98;;;;;;;;;;5033442;28;20205;-76
2021/07/10 12:32:17;;;;;;;3.30;2.22;;;;;;;;;;5021268;28;20220;-76
2021/07/10 12:35:21;;;;;;;2.22;2.05;;;;;;;;;;5021553;28;20224;-76
2021/07/10 12:38:25;;;;;;;3.20;2.35;;;;;;;;;;5033476;28;20177;-76
2021/07/10 12:41:45;;;;;;;2.30;2.10;;;;;;;;;;5032649;28;20556;-76
2021/07/10 12:44:49;;;;;;;2.35;2.25;;;;;;;;;;5021539;28;20181;-76
2021/07/10 12:48:00;;;;;;;2.17;1.98;;;;;;;;;;5033382;28;20177;-76
2021/07/10 12:51:05;;;;;;;3.15;2.10;;;;;;;;;;5033403;28;20217;-76
2021/07/10 12:54:30;;;;;;;4.57;2.00;;;;;;;;;;5021203;28;20181;-76
2021/07/10 12:57:36;;;;;;;3.33;2.20;;;;;;;;;;5033338;28;20628;-76
2021/07/10 13:00:40;;;;;;;2.92;2.20;;;;;;;;;;5033700;28;20217;-77
2021/07/10 13:03:50;;;;;;;2.20;1.80;;;;;;;;;;5033658;28;20177;-76
2021/07/10 13:06:54;;;;;;;4.47;2.00;;;;;;;;;;5021235;28;20185;-76
2021/07/10 13:09:59;;;;;;;1.83;1.60;;;;;;;;;;5053722;28;20220;-76
2021/07/10 13:13:11;;;;;;;2.03;1.83;;;;;;;;;;5013922;28;20205;-76
2021/07/10 13:16:17;;;;;;;3.67;2.10;;;;;;;;;;5021717;28;20185;-76
2021/07/10 13:19:31;;;;;;;4.57;1.80;;;;;;;;;;5021235;28;20181;-76
2021/07/10 13:22:45;;;;;;;2.90;2.10;;;;;;;;;;5034326;28;20217;-76
2021/07/10 13:25:50;;;;;;;3.10;1.80;;;;;;;;;;5052434;28;20655;-76
2021/07/10 13:29:16;;;;;;;3.63;1.90;;;;;;;;;;5052341;28;20176;-76
2021/07/10 13:32:21;;;;;;;3.28;1.67;;;;;;;;;;5052745;28;20220;-76
2021/07/10 13:35:25;;;;;;;2.42;2.00;;;;;;;;;;5053896;28;20204;-76
2021/07/10 13:38:34;;;;;;;1.98;1.60;;;;;;;;;;5036974;28;20193;-76
2021/07/10 13:41:51;;;;;;;3.38;1.88;;;;;;;;;;5036550;28;20217;-76
2021/07/10 13:45:03;;;;;;;2.53;1.80;;;;;;;;;;5037045;28;20518;-76
2021/07/10 13:48:12;;;;;;;2.28;1.85;;;;;;;;;;5035950;28;20185;-76
2021/07/10 13:51:24;;;;;;;1.80;1.70;;;;;;;;;;5024380;28;20213;-76
2021/07/10 13:54:34;;;;;;;2.58;1.70;;;;;;;;;;5036643;28;20177;-76
2021/07/10 13:57:48;;;;;;;7.50;2.20;;;;;;;;;;5024378;28;20181;-76
2021/07/10 14:00:54;;;;;;;2.50;2.00;;;;;;;;;;5024207;28;20213;-76
2021/07/10 14:03:58;;;;;;;2.28;1.90;;;;;;;;;;5024325;28;20628;-76
2021/07/10 14:07:02;;;;;;;1.70;1.60;;;;;;;;;;5035280;28;20205;-75
2021/07/10 14:10:10;;;;;;;3.47;1.80;;;;;;;;;;5035817;28;20246;-75
2021/07/10 14:13:25;;;;;;;5.68;1.67;;;;;;;;;;5035998;28;20177;-76
2021/07/10 14:16:30;;;;;;;10.73;4.35;;;;;;;;;;5037448;28;20186;-76
2021/07/10 14:19:34;;;;;;;4.25;2.00;;;;;;;;;;5055818;28;20196;-76
2021/07/10 14:22:39;;;;;;;1.88;1.63;;;;;;;;;;5054921;28;20557;-76
2021/07/10 14:25:43;;;;;;;2.90;1.55;;;;;;;;;;5056013;28;20188;-76
2021/07/10 14:28:47;;;;;;;4.15;2.10;;;;;;;;;;5055873;28;20200;-76
2021/07/10 14:31:51;;;;;;;2.65;1.50;;;;;;;;;;5054726;28;20216;-76
2021/07/10 14:34:55;;;;;;;2.75;2.00;;;;;;;;;;5054935;28;20180;-76
2021/07/10 14:38:02;;;;;;;1.80;1.50;;;;;;;;;;5043530;28;20173;-76
2021/07/10 14:41:07;;;;;;;3.20;1.20;;;;;;;;;;5055328;28;20216;-76
2021/07/10 14:44:11;;;;;;;1.63;1.45;;;;;;;;;;5055324;28;20192;-76
2021/07/10 14:47:16;;;;;;;2.33;1.40;;;;;;;;;;5054400;28;20176;-76
2021/07/10 14:50:21;;;;;;;4.45;1.30;;;;;;;;;;5055247;28;20200;-76
2021/07/10 14:53:25;;;;;;;3.22;1.30;;;;;;;;;;5055183;28;20651;-76
2021/07/10 14:56:29;;;;;;;1.45;1.30;;;;;;;;;;5055416;28;20185;-76
2021/07/10 14:59:33;;;;;;;3.10;1.40;;;;;;;;;;5042848;28;20628;-76
2021/07/10 15:02:37;;;;;;;3.15;1.45;;;;;;;;;;5050787;28;20223;-76
2021/07/10 15:05:41;;;;;;;1.70;1.33;;;;;;;;;;5022830;28;20213;-76
2021/07/10 15:08:45;;;;;;;1.50;1.40;;;;;;;;;;5034996;28;20507;-76
2021/07/10 15:11:50;;;;;;;2.88;1.40;;;;;;;;;;5048191;28;20566;-76
2021/07/10 15:14:54;;;;;;;1.52;1.33;;;;;;;;;;5054202;28;20176;-76
2021/07/10 15:17:58;;;;;;;2.35;1.85;;;;;;;;;;5042520;28;20181;-75
2021/07/10 15:21:02;;;;;;;3.08;1.40;;;;;;;;;;5069787;28;20219;-76
2021/07/10 15:24:06;;;;;;;4.40;1.27;;;;;;;;;;5056891;28;20197;-76
2021/07/10 15:27:11;;;;;;;1.40;1.30;;;;;;;;;;5063855;28;20196;-76
2021/07/10 15:30:16;;;;;;;1.65;1.40;;;;;;;;;;5034682;28;20671;-76
2021/07/10 15:33:20;;;;;;;4.43;1.60;;;;;;;;;;5054992;28;20181;-76
2021/07/10 15:36:24;;;;;;;6.57;2.17;;;;;;;;;;5054305;28;20204;-75
2021/07/10 15:39:28;;;;;;;3.85;2.22;;;;;;;;;;5042224;28;20180;-75
2021/07/10 15:42:33;;;;;;;1.83;1.42;;;;;;;;;;5063067;28;20571;-76
2021/07/10 15:45:38;;;;;;;4.55;2.70;;;;;;;;;;5058939;28;20647;-76
2021/07/10 15:48:42;;;;;;;2.03;1.83;;;;;;;;;;5041770;28;20208;-76
2021/07/10 15:51:49;;;;;;;11.73;6.07;;;;;;;;;;5030220;28;20702;-76
2021/07/10 15:54:53;;;;;;;5.50;2.47;;;;;;;;;;5021850;28;20199;-76
2021/07/10 15:57:58;;;;;;;1.95;1.40;;;;;;;;;;5063046;28;20652;-75
2021/07/10 16:01:03;;;;;;;1.60;1.50;;;;;;;;;;5059073;28;20228;-76
2021/07/10 16:04:07;;;;;;;1.80;1.70;;;;;;;;;;5056441;28;20662;-75
2021/07/10 16:07:11;;;;;;;2.47;1.52;;;;;;;;;;5049436;28;20207;-76
2021/07/10 16:10:18;;;;;;;5.05;1.52;;;;;;;;;;5071382;28;20185;-76
2021/07/10 16:13:23;;;;;;;1.63;1.50;;;;;;;;;;5054006;28;20213;-76
2021/07/10 16:16:27;;;;;;;5.25;1.75;;;;;;;;;;5061350;28;20197;-75
2021/07/10 16:19:31;;;;;;;1.52;1.42;;;;;;;;;;5048943;28;20201;-75
2021/07/10 16:22:36;;;;;;;3.35;1.77;;;;;;;;;;5021383;28;20229;-76
2021/07/10 16:25:40;;;;;;;2.47;1.50;;;;;;;;;;5071662;28;20204;-76
2021/07/10 16:28:44;;;;;;;1.92;1.50;;;;;;;;;;5073590;28;20518;-76
2021/07/10 16:31:49;;;;;;;4.32;1.88;;;;;;;;;;5073607;28;20587;-76
2021/07/10 16:34:54;;;;;;;7.40;4.10;;;;;;;;;;5061097;28;20191;-76
2021/07/10 16:37:58;;;;;;;7.33;5.90;;;;;;;;;;5084508;22;20225;-85
2021/07/10 16:41:02;;;;;;;3.03;2.10;;;;;;;;;;5045786;28;20212;-84
2021/07/10 16:44:07;;;;;;;3.17;1.90;;;;;;;;;;5050197;28;20506;-84
2021/07/10 16:47:11;;;;;;;1.90;1.70;;;;;;;;;;5035299;28;20561;-84
2021/07/10 16:50:18;;;;;;;1.87;1.73;;;;;;;;;;5052002;28;20200;-85
2021/07/10 16:53:25;;;;;;;4.10;1.73;;;;;;;;;;5047401;28;20271;-85
2021/07/10 16:56:29;;;;;;;3.13;1.60;;;;;;;;;;5061227;28;20215;-85
2021/07/10 16:59:35;;;;;;;1.97;1.87;;;;;;;;;;5038378;28;20179;-85
2021/07/10 17:02:39;;;;;;;3.43;1.90;;;;;;;;;;5038545;28;20179;-85
2021/07/10 17:05:43;;;;;;;4.03;1.70;;;;;;;;;;5061044;28;20180;-85
2021/07/10 17:08:47;;;;;;;2.60;1.87;;;;;;;;;;5056447;28;20196;-85
2021/07/10 17:11:51;;;;;;;2.30;2.10;;;;;;;;;;5065087;28;20178;-85
2021/07/10 17:14:55;;;;;;;5.20;2.10;;;;;;;;;;5053981;28;20527;-84
2021/07/10 17:18:00;;;;;;;2.03;1.87;;;;;;;;;;5065020;28;20221;-84
2021/07/10 17:21:04;;;;;;;4.90;2.10;;;;;;;;;;5065135;28;20217;-84
2021/07/10 17:24:10;;;;;;;7.30;2.00;;;;;;;;;;5053340;28;20181;-84
2021/07/10 17:27:14;;;;;;;3.30;2.20;;;;;;;;;;5065104;28;20226;-84
2021/07/10 17:30:19;;;;;;;7.47;2.30;;;;;;;;;;5053611;28;20181;-84
2021/07/10 17:33:23;;;;;;;4.50;2.13;;;;;;;;;;5053562;28;20180;-84
2021/07/10 17:36:27;;;;;;;2.13;1.93;;;;;;;;;;5053750;28;20222;-85
2021/07/10 17:39:32;;;;;;;5.83;2.10;;;;;;;;;;5055428;28;20180;-85
2021/07/10 17:42:36;;;;;;;4.13;2.40;;;;;;;;;;5066134;28;20180;-85
2021/07/10 17:45:40;;;;;;;6.63;2.37;;;;;;;;;;5077988;28;20184;-85
2021/07/10 17:48:44;;;;;;;5.77;2.30;;;;;;;;;;5055339;28;20183;-84
2021/07/10 17:51:48;;;;;;;5.17;2.27;;;;;;;;;;5077751;28;20516;-85
2021/07/10 17:54:53;;;;;;;2.67;2.00;;;;;;;;;;5065659;28;20187;-84
2021/07/10 17:57:57;;;;;;;6.03;2.40;;;;;;;;;;5076740;28;20218;-84
2021/07/10 18:01:02;;;;;;;4.47;2.20;;;;;;;;;;5065889;28;20211;-85
2021/07/10 18:04:08;;;;;;;3.10;1.97;;;;;;;;;;5077564;28;20179;-85
2021/07/10 18:07:12;;;;;;;4.13;2.00;;;;;;;;;;5052788;28;20215;-85
2021/07/10 18:10:16;;;;;;;3.47;2.20;;;;;;;;;;5064588;28;20183;-85
2021/07/10 18:13:20;;;;;;;2.23;2.00;;;;;;;;;;5064211;28;20646;-85
2021/07/10 18:16:24;;;;;;;2.97;2.60;;;;;;;;;;5064107;28;20215;-85
2021/07/10 18:19:28;;;;;;;2.57;2.37;;;;;;;;;;5064166;28;20188;-85
2021/07/10 18:22:32;;;;;;;3.97;2.10;;;;;;;;;;5063867;28;20176;-85
2021/07/10 18:25:36;;;;;;;2.80;2.60;;;;;;;;;;5052675;28;20188;-85
2021/07/10 18:28:41;;;;;;;4.30;3.10;;;;;;;;;;5063695;28;20530;-85
2021/07/10 18:31:45;;;;;;;5.67;3.13;;;;;;;;;;5075559;28;20506;-85
2021/07/10 18:34:49;;;;;;;4.07;3.20;;;;;;;;;;5075575;28;20176;-85
2021/07/10 18:37:53;;;;;;;5.23;3.10;;;;;;;;;;5063626;28;20562;-85
2021/07/10 18:40:57;;;;;;;3.53;2.67;;;;;;;;;;5064027;28;20207;-85
2021/07/10 18:44:01;;;;;;;3.20;2.60;;;;;;;;;;5062559;28;20195;-85
2021/07/10 18:47:05;;;;;;;5.70;2.80;;;;;;;;;;5075606;28;20219;-85
2021/07/10 18:50:10;;;;;;;3.80;2.90;;;;;;;;;;5064218;28;20199;-85
2021/07/10 18:53:15;;;;;;;8.93;2.87;;;;;;;;;;5064789;28;20171;-85
2021/07/10 18:56:25;;;;;;;6.70;2.90;;;;;;;;;;5063640;28;20503;-85
2021/07/10 18:59:30;;;;;;;6.43;3.20;;;;;;;;;;5047829;28;20199;-85
2021/07/10 19:02:34;;;;;;;3.70;3.33;;;;;;;;;;5052407;28;20539;-85
2021/07/10 19:05:40;;;;;;;3.67;3.37;;;;;;;;;;5052700;28;20512;-85
2021/07/10 19:08:45;;;;;;;4.10;3.30;;;;;;;;;;5040949;28;20176;-85
2021/07/10 19:11:49;;;;;;;6.73;3.40;;;;;;;;;;5041140;28;20184;-85
2021/07/10 19:14:53;;;;;;;3.80;3.40;;;;;;;;;;5041213;28;20515;-85
2021/07/10 19:17:57;;;;;;;3.87;3.50;;;;;;;;;;5040591;28;20559;-85
2021/07/10 19:21:03;;;;;;;6.03;3.20;;;;;;;;;;5063211;28;20566;-85
2021/07/10 19:24:08;;;;;;;3.67;3.30;;;;;;;;;;5040543;28;20199;-85
2021/07/10 19:27:12;;;;;;;3.37;3.00;;;;;;;;;;5051640;28;20550;-84
2021/07/10 19:30:20;;;;;;;4.03;3.53;;;;;;;;;;5040374;28;20634;-85
2021/07/10 19:33:24;;;;;;;7.30;3.23;;;;;;;;;;5062952;28;20183;-85
2021/07/10 19:36:28;;;;;;;4.40;3.10;;;;;;;;;;5040112;28;20227;-85
2021/07/10 19:39:33;;;;;;;3.53;3.03;;;;;;;;;;5040929;28;20183;-85
2021/07/10 19:42:38;;;;;;;3.50;3.20;;;;;;;;;;5040039;28;20207;-85
2021/07/10 19:45:42;;;;;;;3.83;3.40;;;;;;;;;;5051494;28;20179;-85
2021/07/10 19:48:46;;;;;;;3.97;3.00;;;;;;;;;;5040652;28;20511;-85
2021/07/10 19:51:50;;;;;;;3.33;3.03;;;;;;;;;;5040543;28;20188;-84
2021/07/10 19:54:54;;;;;;;4.23;3.50;;;;;;;;;;5063307;28;20183;-85
2021/07/10 19:57:59;;;;;;;4.57;3.33;;;;;;;;;;5051310;28;20215;-85
2021/07/10 20:01:04;;;;;;;4.53;3.47;;;;;;;;;;5040211;28;20229;-85
2021/07/10 20:04:09;;;;;;;3.50;3.20;;;;;;;;;;5040913;28;20183;-84
2021/07/10 20:07:13;;;;;;;4.87;3.70;;;;;;;;;;5040265;28;20215;-84
2021/07/10 20:10:18;;;;;;;4.23;3.27;;;;;;;;;;5051173;28;20194;-84
2021/07/10 20:13:25;;;;;;;4.73;3.03;;;;;;;;;;5041037;28;20175;-84
2021/07/10 20:16:29;;;;;;;4.63;3.40;;;;;;;;;;5041132;28;20219;-84
2021/07/10 20:19:34;;;;;;;3.80;3.37;;;;;;;;;;5053092;28;20195;-85
2021/07/10 20:22:39;;;;;;;3.07;2.77;;;;;;;;;;5042076;28;20658;-84
2021/07/10 20:25:43;;;;;;;5.40;3.33;;;;;;;;;;5041084;28;20175;-84
2021/07/10 20:28:47;;;;;;;5.63;2.70;;;;;;;;;;5041339;28;20625;-84